Time;durP1;ratioP1;P1;durP2;ratioP2;P2;SDS_P1;SDS_P2;PMS_P1;PMS_P2;Temp;Humidity;BMP_temperature;BMP_pressure;BME280_temperature;BME280_humidity;BME280_pressure;Samples;Min_cycle;Max_cycle;Signal;HPM_P1;HPM_P2
2022/06/07 00:02:09;;;;;;;9.88;5.03;;;21.10;87.00;;;;;;5055266;28;20045;-62
2022/06/07 00:04:35;;;;;;;10.27;5.18;;;21.30;84.30;;;;;;5053663;28;20051;-62
2022/06/07 00:07:01;;;;;;;6.85;3.83;;;21.00;86.90;;;;;;5048434;28;20364;-63
2022/06/07 00:09:27;;;;;;;9.20;5.03;;;21.10;87.10;;;;;;5017003;28;20049;-62
2022/06/07 00:11:53;;;;;;;6.70;4.10;;;21.30;87.00;;;;;;5037861;28;20518;-62
2022/06/07 00:14:19;;;;;;;8.80;4.70;;;21.50;87.10;;;;;;5036774;28;20084;-62
2022/06/07 00:16:44;;;;;;;10.05;6.05;;;21.40;87.10;;;;;;5037675;28;20432;-62
2022/06/07 00:19:10;;;;;;;8.13;4.00;;;21.10;86.90;;;;;;5035742;28;20072;-63
2022/06/07 00:21:36;;;;;;;6.97;3.95;;;21.20;87.10;;;;;;5044315;28;20049;-62
2022/06/07 00:24:02;;;;;;;8.45;4.20;;;21.20;83.20;;;;;;5035790;28;20045;-66
2022/06/07 00:26:28;;;;;;;10.30;4.65;;;21.30;87.00;;;;;;5016913;28;20543;-62
2022/06/07 00:28:54;;;;;;;9.45;4.55;;;21.30;86.90;;;;;;5060919;28;20037;-62
2022/06/07 00:31:20;;;;;;;7.18;4.32;;;;;;;;;;5009391;28;20048;-63
2022/06/07 00:33:46;;;;;;;10.45;4.90;;;21.10;86.90;;;;;;5035451;28;20490;-64
2022/06/07 00:36:12;;;;;;;10.13;5.15;;;;;;;;;;5016633;28;20084;-63
2022/06/07 00:38:38;;;;;;;6.10;3.55;;;21.20;86.90;;;;;;5041351;28;20513;-62
2022/06/07 00:41:03;;;;;;;11.05;5.05;;;21.20;87.10;;;;;;5034155;28;20045;-62
2022/06/07 00:43:29;;;;;;;8.25;3.97;;;21.30;87.20;;;;;;5035244;28;20033;-63
2022/06/07 00:45:56;;;;;;;7.72;4.00;;;20.90;86.60;;;;;;5034648;28;20041;-65
2022/06/07 00:48:22;;;;;;;6.18;3.70;;;21.30;84.20;;;;;;5039606;28;20126;-64
2022/06/07 00:51:11;;;;;;;9.30;4.80;;;21.30;86.80;;;;;;5031792;28;20119;-62
2022/06/07 00:53:36;;;;;;;8.50;3.78;;;21.10;86.90;;;;;;5050672;28;20044;-62
2022/06/07 00:56:03;;;;;;;6.95;3.90;;;21.40;87.00;;;;;;5016669;28;20041;-62
2022/06/07 00:58:29;;;;;;;7.88;4.00;;;21.20;87.10;;;;;;5016402;28;20045;-62
2022/06/07 01:00:56;;;;;;;8.82;4.57;;;21.30;86.70;;;;;;4999585;28;20095;-63
2022/06/07 01:03:22;;;;;;;9.38;4.47;;;21.20;86.90;;;;;;5033627;28;20076;-62
2022/06/07 01:05:49;;;;;;;8.85;4.32;;;21.20;86.80;;;;;;5031877;28;20049;-62
2022/06/07 01:10:59;;;;;;;10.32;4.35;;;21.20;86.90;;;;;;5015805;28;20545;-64
2022/06/07 01:13:27;;;;;;;9.32;4.72;;;21.00;87.00;;;;;;5047983;28;20060;-63
2022/06/07 01:16:01;;;;;;;8.40;4.20;;;21.10;86.80;;;;;;5043737;28;20055;-62
2022/06/07 01:18:28;;;;;;;7.50;3.78;;;21.00;87.20;;;;;;5038805;28;20033;-62
2022/06/07 01:21:15;;;;;;;7.00;3.95;;;21.20;86.90;;;;;;5046351;28;20045;-63
2022/06/07 01:23:42;;;;;;;7.90;4.40;;;21.00;87.00;;;;;;5061338;28;20052;-62
2022/06/07 01:26:09;;;;;;;7.40;3.95;;;21.20;87.60;;;;;;5034139;28;20561;-62
2022/06/07 01:28:35;;;;;;;8.25;4.55;;;21.00;86.90;;;;;;5045298;28;20045;-62
2022/06/07 01:31:00;;;;;;;8.25;4.30;;;21.00;87.00;;;;;;5035953;28;20055;-63
2022/06/07 01:33:26;;;;;;;7.18;4.22;;;21.10;86.90;;;;;;5042937;28;20064;-63
2022/06/07 01:36:08;;;;;;;7.88;4.75;;;21.30;84.80;;;;;;5034785;28;20151;-65
2022/06/07 01:38:35;;;;;;;8.00;4.78;;;21.20;86.90;;;;;;5031573;28;20049;-64
2022/06/07 01:43:45;;;;;;;6.82;3.90;;;21.20;87.00;;;;;;5032278;28;20050;-62
2022/06/07 01:46:11;;;;;;;8.88;4.82;;;20.90;85.50;;;;;;5015669;28;20045;-63
2022/06/07 01:48:36;;;;;;;7.53;4.22;;;21.20;84.00;;;;;;5020041;28;20049;-62
2022/06/07 01:51:04;;;;;;;6.93;3.97;;;21.00;86.90;;;;;;5015975;28;20121;-63
2022/06/07 01:53:29;;;;;;;7.65;5.00;;;21.30;84.30;;;;;;4999833;28;20129;-62
2022/06/07 01:56:12;;;;;;;6.90;4.45;;;21.10;86.90;;;;;;4999237;28;20161;-62
2022/06/07 01:58:38;;;;;;;8.65;4.75;;;21.20;83.20;;;;;;5018886;28;20053;-62
2022/06/07 02:01:04;;;;;;;6.68;4.68;;;21.00;86.90;;;;;;5051059;28;20069;-62
2022/06/07 02:03:30;;;;;;;8.90;4.93;;;21.20;83.90;;;;;;5003224;28;20092;-62
2022/06/07 02:06:04;;;;;;;8.57;4.93;;;21.10;86.90;;;;;;5037747;28;20048;-62
2022/06/07 02:08:30;;;;;;;8.85;4.57;;;21.10;84.50;;;;;;5054291;28;20099;-62
2022/06/07 02:10:56;;;;;;;7.80;4.80;;;21.00;86.80;;;;;;5037828;28;20037;-62
2022/06/07 02:13:22;;;;;;;8.32;4.72;;;21.20;83.00;;;;;;5029026;28;20515;-67
2022/06/07 02:15:48;;;;;;;7.75;5.22;;;21.40;87.10;;;;;;5024317;28;20052;-62
2022/06/07 02:18:14;;;;;;;6.35;4.15;;;21.10;85.90;;;;;;5050447;28;20053;-62
2022/06/07 02:20:40;;;;;;;7.43;4.35;;;21.20;84.10;;;;;;5016371;28;20552;-62
2022/06/07 02:23:08;;;;;;;6.93;4.75;;;21.10;84.10;;;;;;5017121;28;20057;-62
2022/06/07 02:25:37;;;;;;;6.93;4.65;;;21.00;84.10;;;;;;5034521;28;20061;-62
2022/06/07 02:28:04;;;;;;;8.10;5.22;;;21.00;87.20;;;;;;5060219;28;20046;-62
2022/06/07 02:30:30;;;;;;;7.35;4.47;;;21.00;86.90;;;;;;5047245;28;20438;-62
2022/06/07 02:32:55;;;;;;;8.52;4.45;;;20.90;83.90;;;;;;5035145;28;20128;-63
2022/06/07 02:35:21;;;;;;;7.57;4.75;;;20.80;83.90;;;;;;5040379;28;20091;-62
2022/06/07 02:37:47;;;;;;;8.40;4.47;;;;;;;;;;5016334;28;20514;-63
2022/06/07 02:40:13;;;;;;;12.32;7.90;;;21.10;82.30;;;;;;5015369;28;20049;-62
2022/06/07 02:42:39;;;;;;;9.40;4.82;;;21.10;87.00;;;;;;5032082;28;20083;-62
2022/06/07 02:45:05;;;;;;;12.10;4.50;;;21.20;87.20;;;;;;5035563;28;20045;-62
2022/06/07 02:47:31;;;;;;;7.88;4.78;;;21.00;86.90;;;;;;5064323;28;20053;-62
2022/06/07 02:49:57;;;;;;;7.47;4.68;;;21.00;86.90;;;;;;5031064;28;20064;-62
2022/06/07 02:52:22;;;;;;;8.13;4.53;;;21.10;84.10;;;;;;5015163;28;20081;-62
2022/06/07 02:54:48;;;;;;;6.80;4.10;;;21.00;87.00;;;;;;5032143;28;20104;-63
2022/06/07 02:57:15;;;;;;;7.43;4.70;;;21.00;83.90;;;;;;5045027;28;20124;-63
2022/06/07 02:59:41;;;;;;;8.13;5.13;;;20.80;84.20;;;;;;5033993;28;20107;-62
2022/06/07 03:02:06;;;;;;;9.05;5.90;;;20.90;87.10;;;;;;5033141;28;20050;-62
2022/06/07 03:04:33;;;;;;;8.80;5.20;;;20.80;83.90;;;;;;5033831;28;20111;-63
2022/06/07 03:07:00;;;;;;;7.97;4.32;;;;;;;;;;5017728;28;20037;-69
2022/06/07 03:09:26;;;;;;;6.28;4.18;;;20.70;82.50;;;;;;5030619;28;20046;-62
2022/06/07 03:11:52;;;;;;;6.35;3.80;;;21.00;87.20;;;;;;5015397;28;20100;-62
2022/06/07 03:14:18;;;;;;;10.07;5.60;;;21.00;87.30;;;;;;5015222;28;20046;-62
2022/06/07 03:16:44;;;;;;;8.77;4.63;;;;;;;;;;5012657;28;20049;-62
2022/06/07 03:19:10;;;;;;;7.57;4.47;;;21.00;87.10;;;;;;4997592;28;20054;-62
2022/06/07 03:21:37;;;;;;;7.20;3.92;;;;;;;;;;4993414;28;20197;-69
2022/06/07 03:24:03;;;;;;;6.47;4.20;;;21.00;87.60;;;;;;4995391;28;20038;-63
2022/06/07 03:26:29;;;;;;;9.45;4.80;;;21.10;87.30;;;;;;4995735;28;20049;-62
2022/06/07 03:28:55;;;;;;;7.85;4.53;;;20.90;87.20;;;;;;5028107;28;20062;-61
2022/06/07 03:31:21;;;;;;;6.90;4.25;;;20.90;87.20;;;;;;5027065;28;20050;-60
2022/06/07 03:33:47;;;;;;;6.93;3.90;;;21.10;87.30;;;;;;5031610;28;20132;-62
2022/06/07 03:36:21;;;;;;;7.25;3.85;;;21.10;87.50;;;;;;5012207;28;20049;-61
2022/06/07 03:38:47;;;;;;;6.72;4.50;;;20.90;87.00;;;;;;5010711;28;20057;-61
2022/06/07 03:41:31;;;;;;;10.05;4.53;;;21.00;87.20;;;;;;4999388;28;20046;-61
2022/06/07 03:43:57;;;;;;;7.88;3.95;;;21.20;87.40;;;;;;5024935;28;20042;-61
2022/06/07 03:46:24;;;;;;;11.68;5.13;;;21.00;84.30;;;;;;4995511;28;20112;-61
2022/06/07 03:48:50;;;;;;;8.07;4.45;;;21.00;87.10;;;;;;4994626;28;20446;-61
2022/06/07 03:51:17;;;;;;;9.60;4.50;;;21.20;87.20;;;;;;4982613;28;20108;-61
2022/06/07 03:53:43;;;;;;;7.45;4.38;;;21.10;87.00;;;;;;5010052;28;20038;-61
2022/06/07 03:56:09;;;;;;;7.18;4.22;;;21.20;87.10;;;;;;5000457;28;20038;-61
2022/06/07 03:58:35;;;;;;;6.45;4.20;;;21.10;84.00;;;;;;5044930;28;20432;-61
2022/06/07 04:01:01;;;;;;;8.82;4.85;;;21.10;87.10;;;;;;5002060;28;20125;-61
2022/06/07 04:03:28;;;;;;;7.90;4.55;;;21.10;87.40;;;;;;5021542;28;20062;-61
2022/06/07 04:05:54;;;;;;;7.50;4.88;;;21.10;87.10;;;;;;5000371;28;20050;-60
2022/06/07 04:08:19;;;;;;;8.55;4.70;;;21.20;87.20;;;;;;5039548;28;20046;-60
2022/06/07 04:10:53;;;;;;;7.40;4.70;;;21.00;87.00;;;;;;4995062;28;20054;-61
2022/06/07 04:13:20;;;;;;;8.98;5.70;;;21.10;83.60;;;;;;4973516;28;1142913;-64
2022/06/07 04:15:46;;;;;;;7.55;4.72;;;21.10;87.10;;;;;;5025083;28;20491;-62
2022/06/07 04:18:12;;;;;;;7.72;4.80;;;21.20;87.10;;;;;;5011428;28;20058;-61
2022/06/07 04:20:37;;;;;;;9.05;4.63;;;21.00;84.20;;;;;;5014198;28;20137;-61
2022/06/07 04:23:04;;;;;;;7.20;4.57;;;20.90;84.80;;;;;;5043142;28;20089;-62
2022/06/07 04:25:34;;;;;;;8.25;4.97;;;23.20;83.50;;;;;;5010576;28;20047;-62
2022/06/07 04:28:00;;;;;;;8.63;4.70;;;21.00;87.00;;;;;;4995733;28;20047;-61
2022/06/07 04:30:26;;;;;;;8.73;5.20;;;21.00;87.00;;;;;;5002109;28;20535;-61
2022/06/07 04:32:51;;;;;;;7.85;4.70;;;21.20;87.30;;;;;;5008213;28;20530;-61
2022/06/07 04:35:18;;;;;;;7.70;5.20;;;21.00;87.00;;;;;;5015087;28;20092;-61
2022/06/07 04:37:49;;;;;;;8.38;4.95;;;21.10;87.00;;;;;;5036910;28;20522;-61
2022/06/07 04:40:15;;;;;;;7.75;5.00;;;;;;;;;;5013065;28;20508;-61
2022/06/07 04:42:44;;;;;;;9.82;4.93;;;21.20;87.00;;;;;;5007233;28;20053;-61
2022/06/07 04:45:13;;;;;;;7.35;5.10;;;20.80;87.20;;;;;;5002618;28;20037;-61
2022/06/07 04:47:40;;;;;;;6.68;4.88;;;21.20;87.10;;;;;;4989773;28;20149;-61
2022/06/07 04:50:06;;;;;;;7.53;4.70;;;21.20;87.30;;;;;;5031453;28;20083;-61
2022/06/07 04:52:32;;;;;;;8.15;4.72;;;21.30;87.10;;;;;;5009266;28;20092;-61
2022/06/07 04:54:58;;;;;;;7.95;5.10;;;21.10;87.10;;;;;;5014039;28;20049;-61
2022/06/07 04:57:24;;;;;;;9.38;5.03;;;21.20;87.30;;;;;;4996770;28;20058;-61
2022/06/07 04:59:49;;;;;;;7.10;4.55;;;21.00;87.00;;;;;;5002165;28;20042;-62
2022/06/07 05:02:16;;;;;;;9.63;5.55;;;;;;;;;;4994769;28;20477;-63
2022/06/07 05:04:41;;;;;;;9.85;5.07;;;21.20;87.10;;;;;;4999185;28;20454;-61
2022/06/07 05:07:07;;;;;;;8.45;5.05;;;20.90;87.20;;;;;;4995343;28;20082;-61
2022/06/07 05:09:33;;;;;;;7.13;4.72;;;21.00;87.10;;;;;;5004728;28;20056;-60
2022/06/07 05:11:58;;;;;;;7.88;4.78;;;21.20;87.10;;;;;;5003210;28;20422;-60
2022/06/07 05:14:24;;;;;;;7.47;5.10;;;21.20;84.20;;;;;;5014210;28;20042;-60
2022/06/07 05:16:50;;;;;;;8.25;4.88;;;21.30;87.30;;;;;;5016928;28;20487;-61
2022/06/07 05:19:16;;;;;;;7.15;4.78;;;21.10;87.10;;;;;;5029045;28;20040;-61
2022/06/07 05:21:42;;;;;;;6.90;4.55;;;20.90;86.90;;;;;;5025447;28;20096;-61
2022/06/07 05:24:08;;;;;;;7.40;4.68;;;21.00;87.00;;;;;;5015379;28;20479;-63
2022/06/07 05:26:47;;;;;;;7.65;4.53;;;21.30;84.80;;;;;;5032706;28;20120;-63
2022/06/07 05:29:17;;;;;;;7.20;4.82;;;21.10;83.80;;;;;;5030669;28;20064;-63
2022/06/07 05:31:43;;;;;;;6.50;4.45;;;21.40;84.10;;;;;;5031835;28;20092;-60
2022/06/07 05:34:09;;;;;;;7.35;4.53;;;21.10;87.00;;;;;;5032194;28;20041;-60
2022/06/07 05:36:35;;;;;;;7.20;4.60;;;21.20;87.30;;;;;;5032419;28;20068;-61
2022/06/07 05:39:03;;;;;;;7.57;5.03;;;21.20;84.20;;;;;;5021002;28;20120;-61
2022/06/07 05:41:29;;;;;;;7.90;5.07;;;21.00;87.00;;;;;;5022816;28;20128;-61
2022/06/07 05:43:55;;;;;;;7.50;4.03;;;21.20;87.30;;;;;;5032459;28;20048;-62
2022/06/07 05:46:22;;;;;;;6.70;4.35;;;21.10;84.20;;;;;;5032960;28;20463;-60
2022/06/07 05:48:47;;;;;;;6.53;4.53;;;21.10;86.90;;;;;;5013475;28;20042;-60
2022/06/07 05:51:13;;;;;;;8.88;4.47;;;21.30;87.40;;;;;;5014615;28;20124;-61
2022/06/07 05:53:39;;;;;;;7.68;4.28;;;21.20;86.90;;;;;;5050205;28;20029;-61
2022/06/07 05:56:13;;;;;;;6.65;3.92;;;21.10;86.90;;;;;;5022013;28;20054;-61
2022/06/07 05:58:39;;;;;;;6.38;4.20;;;21.20;86.90;;;;;;5013418;28;20045;-61
2022/06/07 06:01:06;;;;;;;7.15;4.38;;;21.30;87.10;;;;;;5014091;28;20050;-60
2022/06/07 06:03:32;;;;;;;6.35;3.95;;;21.20;84.00;;;;;;5015478;28;20042;-60
2022/06/07 06:05:57;;;;;;;7.32;4.35;;;21.20;86.80;;;;;;5015005;28;20052;-61
2022/06/07 06:11:08;;;;;;;6.18;3.97;;;;;;;;;;5039994;28;20431;-65
2022/06/07 06:13:35;;;;;;;8.27;4.07;;;21.30;87.00;;;;;;5032814;28;20054;-61
2022/06/07 06:16:03;;;;;;;5.93;3.97;;;21.20;86.70;;;;;;5032475;28;20056;-62
2022/06/07 06:18:28;;;;;;;6.80;3.90;;;21.20;86.80;;;;;;5051746;28;20060;-61
2022/06/07 06:20:55;;;;;;;6.07;3.55;;;21.10;86.50;;;;;;5052735;28;20041;-60
2022/06/07 06:23:21;;;;;;;5.85;3.60;;;21.20;87.20;;;;;;5040099;28;20045;-61
2022/06/07 06:25:47;;;;;;;6.15;3.58;;;21.30;87.00;;;;;;5031965;28;20443;-62
2022/06/07 06:28:12;;;;;;;6.55;3.22;;;21.10;86.70;;;;;;5034075;28;20044;-61
2022/06/07 06:30:41;;;;;;;5.68;3.45;;;21.20;86.80;;;;;;5037206;28;20044;-61
2022/06/07 06:33:07;;;;;;;5.00;3.13;;;;;;;;;;5031577;28;20048;-68
2022/06/07 06:35:33;;;;;;;7.30;3.42;;;21.10;87.10;;;;;;5049202;28;20041;-61
2022/06/07 06:37:59;;;;;;;6.28;3.50;;;20.90;86.80;;;;;;5052691;28;20067;-61
2022/06/07 06:40:25;;;;;;;5.55;3.30;;;21.30;86.70;;;;;;5038957;28;20090;-61
2022/06/07 06:42:52;;;;;;;6.43;3.50;;;21.10;86.70;;;;;;5032972;28;20445;-61
2022/06/07 06:45:17;;;;;;;6.25;3.20;;;21.20;86.80;;;;;;5050550;28;20080;-63
2022/06/07 06:47:44;;;;;;;5.63;3.10;;;21.10;86.70;;;;;;5050932;28;20088;-62
2022/06/07 06:50:11;;;;;;;5.47;2.95;;;21.40;87.20;;;;;;5072019;28;20509;-62
2022/06/07 06:52:37;;;;;;;5.20;2.70;;;21.20;86.70;;;;;;5036595;28;20482;-63
2022/06/07 06:55:03;;;;;;;5.72;3.00;;;21.10;83.50;;;;;;5041636;28;20049;-62
2022/06/07 06:57:28;;;;;;;4.80;2.70;;;21.50;85.30;;;;;;5047306;28;20037;-63
2022/06/07 06:59:54;;;;;;;5.28;2.60;;;21.40;86.70;;;;;;5051862;28;20060;-60
2022/06/07 07:02:20;;;;;;;5.22;2.90;;;21.20;86.70;;;;;;5036271;28;20045;-61
2022/06/07 07:04:46;;;;;;;5.20;2.90;;;;;;;;;;5036198;28;20041;-60
2022/06/07 07:07:12;;;;;;;4.82;2.42;;;21.20;81.70;;;;;;5036345;28;20045;-62
2022/06/07 07:09:37;;;;;;;5.43;2.80;;;21.50;86.60;;;;;;5036302;28;20125;-62
2022/06/07 07:12:03;;;;;;;7.70;2.50;;;21.30;86.60;;;;;;5067728;28;20513;-62
2022/06/07 07:14:30;;;;;;;5.25;2.45;;;;;;;;;;5020544;28;20042;-64
2022/06/07 07:16:56;;;;;;;5.90;2.45;;;21.40;86.50;;;;;;5025450;28;20495;-64
2022/06/07 07:19:22;;;;;;;4.93;2.38;;;21.40;86.70;;;;;;5022637;28;20099;-62
2022/06/07 07:21:50;;;;;;;5.38;2.28;;;21.20;86.50;;;;;;5021572;28;20399;-60
2022/06/07 07:24:20;;;;;;;4.30;2.53;;;21.10;86.20;;;;;;5035437;28;20061;-60
2022/06/07 07:26:47;;;;;;;4.60;2.15;;;21.50;86.50;;;;;;5015169;28;20060;-62
2022/06/07 07:29:14;;;;;;;4.03;2.05;;;21.50;86.30;;;;;;5035617;28;20042;-62
2022/06/07 07:31:39;;;;;;;5.15;2.20;;;21.20;86.10;;;;;;5029075;28;20045;-62
2022/06/07 07:34:07;;;;;;;4.03;2.00;;;21.60;86.20;;;;;;5025565;28;20045;-62
2022/06/07 07:36:33;;;;;;;3.53;1.90;;;21.50;85.50;;;;;;5016745;28;20515;-64
2022/06/07 07:38:59;;;;;;;3.63;2.00;;;21.40;83.60;;;;;;5014982;28;20050;-62
2022/06/07 07:41:27;;;;;;;3.80;2.13;;;21.40;86.00;;;;;;5015577;28;20041;-62
2022/06/07 07:43:53;;;;;;;4.47;2.17;;;21.40;86.00;;;;;;5014601;28;20056;-66
2022/06/07 07:46:20;;;;;;;5.25;1.90;;;21.50;85.90;;;;;;5014340;28;20050;-64
2022/06/07 07:48:46;;;;;;;4.38;1.88;;;21.70;86.10;;;;;;5028432;28;20054;-60
2022/06/07 07:51:26;;;;;;;3.75;1.90;;;21.40;85.90;;;;;;5034044;28;20121;-61
2022/06/07 07:53:52;;;;;;;6.03;1.90;;;21.40;85.80;;;;;;5016251;28;20053;-60
2022/06/07 07:56:19;;;;;;;3.55;1.90;;;21.60;83.00;;;;;;5012990;28;20483;-61
2022/06/07 07:58:44;;;;;;;2.90;1.55;;;21.40;85.60;;;;;;5025415;28;20053;-61
2022/06/07 08:01:14;;;;;;;4.40;1.90;;;21.50;84.40;;;;;;5016237;28;20042;-61
2022/06/07 08:03:40;;;;;;;3.22;1.67;;;21.50;85.60;;;;;;5014219;28;20046;-61
2022/06/07 08:06:07;;;;;;;4.97;1.90;;;21.60;82.80;;;;;;5013599;28;20554;-62
2022/06/07 08:08:33;;;;;;;4.82;1.90;;;21.50;85.70;;;;;;5015655;28;20088;-63
2022/06/07 08:10:59;;;;;;;8.07;1.90;;;21.60;85.70;;;;;;5016010;28;20936;-62
2022/06/07 08:13:25;;;;;;;4.18;1.85;;;;;;;;;;5031375;28;20053;-62
2022/06/07 08:15:50;;;;;;;3.97;2.20;;;21.70;85.60;;;;;;5035015;28;20053;-63
2022/06/07 08:18:16;;;;;;;6.07;1.70;;;21.60;82.70;;;;;;5035055;28;20049;-63
2022/06/07 08:20:42;;;;;;;3.08;1.55;;;21.70;85.50;;;;;;5048012;28;20298;-61
2022/06/07 08:23:08;;;;;;;3.65;1.35;;;21.80;85.40;;;;;;5016650;28;20108;-62
2022/06/07 08:25:34;;;;;;;4.20;1.67;;;21.90;85.30;;;;;;5024754;28;20034;-62
2022/06/07 08:28:02;;;;;;;3.40;1.42;;;22.00;85.20;;;;;;5032507;28;20180;-62
2022/06/07 08:30:28;;;;;;;3.55;1.40;;;21.90;85.10;;;;;;5016436;28;20049;-63
2022/06/07 08:32:53;;;;;;;4.38;1.65;;;22.00;85.00;;;;;;5046277;28;20050;-63
2022/06/07 08:38:04;;;;;;;3.35;1.77;;;21.70;85.00;;;;;;5018236;28;20038;-63
2022/06/07 08:40:43;;;;;;;3.45;1.40;;;21.80;82.20;;;;;;5032408;28;20171;-64
2022/06/07 08:43:19;;;;;;;4.75;1.50;;;22.00;84.90;;;;;;5043188;28;20038;-63
2022/06/07 08:45:46;;;;;;;4.47;1.63;;;22.00;84.90;;;;;;5023874;28;20391;-65
2022/06/07 08:48:14;;;;;;;3.70;1.60;;;21.90;84.90;;;;;;5031825;28;20544;-62
2022/06/07 08:50:59;;;;;;;5.00;1.73;;;22.10;85.00;;;;;;5030027;28;20073;-65
2022/06/07 08:53:31;;;;;;;4.18;1.40;;;21.80;81.10;;;;;;5035553;28;20049;-65
2022/06/07 08:55:58;;;;;;;3.35;1.35;;;21.80;84.90;;;;;;5026718;28;20136;-64
2022/06/07 08:58:35;;;;;;;4.13;1.40;;;22.00;84.90;;;;;;5034136;28;20566;-60
2022/06/07 09:01:26;;;;;;;3.00;1.50;;;21.90;84.80;;;;;;5027781;28;20411;-61
2022/06/07 09:04:09;;;;;;;5.15;1.67;;;22.00;85.00;;;;;;5023045;28;20056;-61
2022/06/07 09:06:44;;;;;;;3.60;1.45;;;22.00;84.90;;;;;;5045977;28;20484;-61
2022/06/07 09:09:10;;;;;;;3.47;1.23;;;21.90;84.90;;;;;;5015411;28;20381;-62
2022/06/07 09:14:34;;;;;;;2.70;1.42;;;22.10;85.00;;;;;;5020795;28;20383;-66
2022/06/07 09:17:03;;;;;;;4.32;1.67;;;21.90;84.80;;;;;;5029333;28;20064;-71
2022/06/07 09:19:30;;;;;;;4.78;1.45;;;21.90;84.80;;;;;;5040778;28;20127;-62
2022/06/07 09:21:58;;;;;;;3.40;1.45;;;21.90;84.60;;;;;;5035348;28;20053;-61
2022/06/07 09:24:26;;;;;;;5.28;1.92;;;22.10;84.80;;;;;;5034265;28;20048;-61
2022/06/07 09:26:51;;;;;;;5.35;1.88;;;22.00;84.70;;;;;;5035953;28;20044;-61
2022/06/07 09:29:17;;;;;;;5.13;1.70;;;;;;;;;;5032817;28;20041;-62
2022/06/07 09:31:44;;;;;;;4.07;1.80;;;22.10;84.70;;;;;;5033342;28;20041;-61
2022/06/07 09:34:25;;;;;;;3.42;1.60;;;22.30;84.80;;;;;;5016467;28;20041;-61
2022/06/07 09:37:13;;;;;;;5.28;1.88;;;22.40;84.90;;;;;;5029903;28;20129;-61
2022/06/07 09:39:40;;;;;;;6.65;2.38;;;22.10;82.20;;;;;;5063199;28;20051;-62
2022/06/07 09:42:26;;;;;;;6.05;1.98;;;22.40;84.90;;;;;;5049839;28;20049;-61
2022/06/07 09:45:02;;;;;;;5.63;2.10;;;22.40;84.90;;;;;;5053742;28;20114;-61
2022/06/07 09:47:30;;;;;;;4.45;1.67;;;22.10;81.50;;;;;;5023859;28;20037;-61
2022/06/07 09:50:18;;;;;;;4.00;1.60;;;22.40;84.80;;;;;;5015594;28;20050;-61
2022/06/07 09:52:45;;;;;;;3.58;1.42;;;22.60;84.90;;;;;;5051931;28;20048;-61
2022/06/07 09:55:23;;;;;;;4.47;1.60;;;22.40;84.80;;;;;;5039231;28;20491;-60
2022/06/07 09:58:01;;;;;;;3.30;1.55;;;22.20;83.60;;;;;;5027577;28;20045;-60
2022/06/07 10:00:36;;;;;;;4.22;1.52;;;22.40;84.70;;;;;;5033276;28;20049;-61
2022/06/07 10:03:39;;;;;;;4.00;1.98;;;22.40;84.80;;;;;;5033247;28;20059;-61
2022/06/07 10:06:10;;;;;;;3.65;1.70;;;22.40;84.70;;;;;;5054670;28;20048;-61
2022/06/07 10:08:39;;;;;;;5.43;1.60;;;22.10;80.00;;;;;;5027186;28;20222;-71
2022/06/07 10:11:10;;;;;;;3.63;1.67;;;22.40;84.80;;;;;;5044338;28;20049;-66
2022/06/07 10:13:39;;;;;;;4.37;1.60;;;22.50;84.90;;;;;;5030116;28;20057;-68
2022/06/07 10:16:22;;;;;;;5.53;1.77;;;22.50;82.10;;;;;;5052502;28;20049;-73
2022/06/07 10:19:10;;;;;;;4.93;1.73;;;22.40;84.90;;;;;;5003807;28;20510;-67
2022/06/07 10:21:51;;;;;;;5.50;1.63;;;22.20;84.90;;;;;;5056926;28;20071;-61
2022/06/07 10:24:29;;;;;;;5.20;2.00;;;22.20;82.20;;;;;;5023488;28;20379;-61
2022/06/07 10:27:26;;;;;;;4.55;2.10;;;22.20;80.20;;;;;;5030204;28;20096;-65
2022/06/07 10:30:17;;;;;;;4.50;1.70;;;22.10;84.90;;;;;;4996937;28;20061;-72
2022/06/07 10:33:00;;;;;;;4.63;1.60;;;22.40;85.40;;;;;;5014906;28;20050;-61
2022/06/07 10:35:43;;;;;;;3.83;1.55;;;22.00;85.00;;;;;;4981547;28;20072;-61
2022/06/07 10:38:46;;;;;;;4.50;1.42;;;22.00;85.00;;;;;;5001901;28;20556;-65
2022/06/07 10:41:24;;;;;;;3.50;1.40;;;22.10;85.20;;;;;;4998042;28;20053;-63
2022/06/07 10:44:13;;;;;;;4.55;1.85;;;22.00;85.20;;;;;;5013163;28;20078;-63
2022/06/07 10:46:41;;;;;;;4.03;1.83;;;21.90;85.30;;;;;;4936474;29;20043;-64
2022/06/07 10:49:21;;;;;;;5.03;2.20;;;21.90;81.90;;;;;;4920375;29;20063;-64
2022/06/07 10:52:20;;;;;;;4.60;1.70;;;21.90;85.30;;;;;;4921565;29;20437;-67
2022/06/07 10:55:05;;;;;;;5.03;1.77;;;22.00;85.30;;;;;;4880138;29;20431;-62
2022/06/07 10:57:57;;;;;;;4.13;1.67;;;21.80;85.40;;;;;;4858587;29;20057;-61
2022/06/07 11:00:48;;;;;;;7.03;1.98;;;21.90;85.30;;;;;;4860568;29;20057;-69
2022/06/07 11:03:19;;;;;;;5.75;1.90;;;21.90;85.30;;;;;;4878341;29;20056;-68
2022/06/07 11:11:29;;;;;;;4.28;1.80;;;22.00;82.70;;;;;;4898762;29;20467;-61
2022/06/07 11:14:06;;;;;;;5.68;1.85;;;22.00;85.60;;;;;;4898329;29;20053;-60
2022/06/07 11:16:57;;;;;;;4.35;1.55;;;22.00;83.00;;;;;;4868421;29;20111;-62
2022/06/07 11:19:24;;;;;;;6.47;1.85;;;;;;;;;;4880704;29;20112;-61
2022/06/07 11:21:54;;;;;;;8.18;1.90;;;22.00;85.20;;;;;;4899028;29;20059;-61
2022/06/07 11:24:56;;;;;;;14.18;2.03;;;22.00;85.40;;;;;;4937615;28;20506;-64
2022/06/07 11:27:23;;;;;;;4.93;1.92;;;22.00;85.00;;;;;;4978106;28;20050;-61
2022/06/07 11:29:49;;;;;;;7.13;2.25;;;21.80;85.50;;;;;;4976587;28;20065;-61
2022/06/07 11:32:42;;;;;;;6.20;1.80;;;22.10;85.70;;;;;;5049253;28;20056;-61
2022/06/07 11:35:31;;;;;;;;;;;22.30;82.40;;;;;;5019760;28;20095;-60
2022/06/07 11:37:56;;;;;;;6.00;1.52;;;22.40;85.80;;;;;;4990070;28;20375;-64
2022/06/07 11:40:29;;;;;;;6.82;2.35;;;22.40;82.60;;;;;;4960619;28;20065;-61
2022/06/07 11:42:55;;;;;;;;;;;22.20;82.90;;;;;;4975048;28;20497;-61
2022/06/07 11:45:23;;;;;;;9.20;1.88;;;22.20;85.70;;;;;;4958365;28;19929;-63
2022/06/07 11:47:55;;;;;;;8.05;1.80;;;22.20;83.10;;;;;;4959595;28;20051;-61
2022/06/07 11:50:39;;;;;;;4.93;1.80;;;22.10;85.70;;;;;;4993242;28;20046;-61
2022/06/07 11:53:34;;;;;;;5.05;1.63;;;22.00;86.00;;;;;;4957720;28;20046;-61
2022/06/07 11:56:25;;;;;;;6.05;2.10;;;22.20;83.60;;;;;;4882462;29;20072;-62
2022/06/07 11:58:56;;;;;;;6.10;1.70;;;22.10;82.60;;;;;;4888878;29;20049;-68
2022/06/07 12:01:23;;;;;;;4.00;1.63;;;22.30;82.80;;;;;;4897002;29;20060;-61
2022/06/07 12:04:23;;;;;;;4.57;1.80;;;21.90;85.70;;;;;;4866980;29;20056;-61
2022/06/07 12:06:52;;;;;;;3.88;1.58;;;21.90;81.90;;;;;;4866162;29;20116;-61
2022/06/07 12:09:18;;;;;;;4.15;1.83;;;22.00;86.30;;;;;;4854918;29;20068;-61
2022/06/07 12:11:44;;;;;;;4.10;1.63;;;22.30;86.00;;;;;;4897308;29;20127;-61
2022/06/07 12:14:23;;;;;;;5.45;1.50;;;22.10;85.60;;;;;;4881239;29;20147;-61
2022/06/07 12:17:00;;;;;;;5.10;1.80;;;22.10;85.80;;;;;;4950315;29;20059;-62
2022/06/07 12:19:35;;;;;;;8.20;2.15;;;22.10;85.50;;;;;;4909666;29;20055;-71
2022/06/07 12:22:06;;;;;;;13.75;3.10;;;22.30;85.70;;;;;;4934639;29;20126;-65
2022/06/07 12:24:42;;;;;;;13.38;5.43;;;22.30;85.70;;;;;;4951351;29;20043;-61
2022/06/07 12:27:23;;;;;;;8.77;2.67;;;22.10;85.40;;;;;;4926395;29;20059;-60
2022/06/07 12:29:49;;;;;;;18.83;10.05;;;;;;;;;;4938057;29;20399;-62
2022/06/07 12:32:20;;;;;;;9.77;2.42;;;22.30;85.90;;;;;;4993541;28;20100;-61
2022/06/07 12:34:46;;;;;;;10.77;2.97;;;22.40;83.30;;;;;;5030570;28;20045;-61
2022/06/07 12:37:13;;;;;;;6.93;2.30;;;;;;;;;;5053130;28;20091;-61
2022/06/07 12:39:45;;;;;;;10.18;3.20;;;22.20;85.50;;;;;;5053486;28;20135;-61
2022/06/07 12:42:15;;;;;;;7.63;1.80;;;22.00;85.30;;;;;;5018884;28;20512;-61
2022/06/07 12:44:42;;;;;;;7.53;2.05;;;22.20;83.10;;;;;;5036179;28;20533;-61
2022/06/07 12:47:40;;;;;;;7.15;2.00;;;22.40;85.50;;;;;;5036305;28;20045;-62
2022/06/07 12:50:24;;;;;;;9.85;2.08;;;22.20;85.30;;;;;;5036130;28;20057;-61
2022/06/07 12:52:51;;;;;;;5.55;1.60;;;22.20;85.70;;;;;;5036380;28;20048;-61
2022/06/07 12:55:21;;;;;;;7.20;2.22;;;22.00;85.10;;;;;;5037904;28;20048;-61
2022/06/07 12:57:50;;;;;;;6.93;2.08;;;22.50;83.00;;;;;;5016465;28;20046;-62
2022/06/07 13:00:31;;;;;;;7.03;1.85;;;22.40;85.30;;;;;;5035271;28;20045;-62
2022/06/07 13:03:13;;;;;;;6.85;2.50;;;22.40;85.30;;;;;;5017059;28;20041;-61
2022/06/07 13:05:39;;;;;;;5.88;1.90;;;22.20;85.40;;;;;;5036236;28;20044;-61
2022/06/07 13:08:22;;;;;;;4.65;1.58;;;22.50;82.40;;;;;;5054070;28;20049;-60
2022/06/07 13:10:48;;;;;;;3.78;1.60;;;22.40;85.70;;;;;;5053802;28;20056;-61
2022/06/07 13:13:37;;;;;;;5.75;2.15;;;22.50;85.10;;;;;;5017563;28;20056;-63
2022/06/07 13:16:09;;;;;;;12.88;2.53;;;22.40;81.10;;;;;;5027276;28;20073;-61
2022/06/07 13:18:38;;;;;;;8.32;1.95;;;22.20;83.80;;;;;;5051899;28;20075;-61
2022/06/07 13:21:37;;;;;;;7.78;1.70;;;22.50;85.10;;;;;;5053765;28;20055;-62
2022/06/07 13:24:03;;;;;;;9.50;2.25;;;22.50;85.10;;;;;;5012477;28;20454;-61
2022/06/07 13:26:40;;;;;;;8.93;2.10;;;22.40;85.00;;;;;;4995625;28;20599;-61
2022/06/07 13:29:19;;;;;;;6.90;1.95;;;22.40;85.10;;;;;;5011800;28;20065;-61